sensor_id;sensor_type;location;lat;lon;timestamp;temperature;humidity
21805;DHT22;11064;47.102;15.452;2024-01-15T05:02:28;-3.90;99.90
21805;DHT22;11064;47.102;15.452;2024-01-15T05:04:54;-3.90;99.90
21805;DHT22;11064;47.102;15.452;2024-01-15T05:07:20;-4.00;99.90
21805;DHT22;11064;47.102;15.452;2024-01-15T05:09:45;-4.00;99.90
21805;DHT22;11064;47.102;15.452;2024-01-15T05:12:11;-3.90;99.90
21805;DHT22;11064;47.102;15.452;2024-01-15T05:14:37;-3.90;99.90
21805;DHT22;11064;47.102;15.452;2024-01-15T05:17:03;-3.90;99.90
21805;DHT22;11064;47.102;15.452;2024-01-15T05:19:29;-3.90;99.90
21805;DHT22;11064;47.102;15.452;2024-01-15T05:21:56;-3.90;99.90
21805;DHT22;11064;47.102;15.452;2024-01-15T05:24:22;-3.80;99.90
21805;DHT22;11064;47.102;15.452;2024-01-15T05:26:48;-3.80;99.90
21805;DHT22;11064;47.102;15.452;2024-01-15T05:29:13;-3.80;99.90
21805;DHT22;11064;47.102;15.452;2024-01-15T05:31:39;-3.70;99.90
21805;DHT22;11064;47.102;15.452;2024-01-15T05:34:05;-3.80;99.90
21805;DHT22;11064;47.102;15.452;2024-01-15T05:36:31;-3.80;99.90
21805;DHT22;11064;47.102;15.452;2024-01-15T05:38:57;-3.90;99.90
21805;DHT22;11064;47.102;15.452;2024-01-15T05:41:23;-3.90;99.90
21805;DHT22;11064;47.102;15.452;2024-01-15T05:43:49;-4.00;99.90
21805;DHT22;11064;47.102;15.452;2024-01-15T05:46:14;-4.00;99.90
21805;DHT22;11064;47.102;15.452;2024-01-15T05:48:41;-4.10;99.90
21805;DHT22;11064;47.102;15.452;2024-01-15T05:51:06;-4.00;99.90
21805;DHT22;11064;47.102;15.452;2024-01-15T05:53:32;-4.00;99.90
21805;DHT22;11064;47.102;15.452;2024-01-15T05:55:58;-4.10;99.90
21805;DHT22;11064;47.102;15.452;2024-01-15T05:58:24;-4.20;99.90
21805;DHT22;11064;47.102;15.452;2024-01-15T06:00:50;-4.20;99.90
21805;DHT22;11064;47.102;15.452;2024-01-15T06:03:16;-4.20;99.90
21805;DHT22;11064;47.102;15.452;2024-01-15T06:05:42;-4.20;99.90
21805;DHT22;11064;47.102;15.452;2024-01-15T06:08:08;-4.20;99.90
21805;DHT22;11064;47.102;15.452;2024-01-15T06:10:33;-4.20;99.90
21805;DHT22;11064;47.102;15.452;2024-01-15T06:12:59;-4.20;99.90
21805;DHT22;11064;47.102;15.452;2024-01-15T06:15:25;-4.30;99.90
21805;DHT22;11064;47.102;15.452;2024-01-15T06:17:52;-4.30;99.90
21805;DHT22;11064;47.102;15.452;2024-01-15T06:20:18;-4.30;99.90
21805;DHT22;11064;47.102;15.452;2024-01-15T06:22:43;-4.20;99.90
21805;DHT22;11064;47.102;15.452;2024-01-15T06:25:09;-4.20;99.90
21805;DHT22;11064;47.102;15.452;2024-01-15T06:27:36;-4.10;99.90
21805;DHT22;11064;47.102;15.452;2024-01-15T06:30:03;-4.00;99.90
21805;DHT22;11064;47.102;15.452;2024-01-15T06:32:28;-3.90;99.90
21805;DHT22;11064;47.102;15.452;2024-01-15T06:34:54;-3.80;99.90
21805;DHT22;11064;47.102;15.452;2024-01-15T06:37:21;-3.70;99.90
21805;DHT22;11064;47.102;15.452;2024-01-15T06:39:47;-3.80;99.90
21805;DHT22;11064;47.102;15.452;2024-01-15T06:42:15;-3.70;99.90
21805;DHT22;11064;47.102;15.452;2024-01-15T06:44:41;-3.80;99.90
21805;DHT22;11064;47.102;15.452;2024-01-15T06:47:06;-3.80;99.90
21805;DHT22;11064;47.102;15.452;2024-01-15T06:49:32;-3.80;99.90
21805;DHT22;11064;47.102;15.452;2024-01-15T06:51:58;-3.80;99.90
21805;DHT22;11064;47.102;15.452;2024-01-15T06:54:24;-3.80;99.90
21805;DHT22;11064;47.102;15.452;2024-01-15T06:56:52;-3.80;99.90
21805;DHT22;11064;47.102;15.452;2024-01-15T06:59:18;-3.80;99.90
21805;DHT22;11064;47.102;15.452;2024-01-15T07:01:43;-3.80;99.90
21805;DHT22;11064;47.102;15.452;2024-01-15T07:04:10;-3.80;99.90
21805;DHT22;11064;47.102;15.452;2024-01-15T07:06:36;-3.70;99.90
21805;DHT22;11064;47.102;15.452;2024-01-15T07:09:01;-3.50;99.90
21805;DHT22;11064;47.102;15.452;2024-01-15T07:11:27;-3.40;99.90
21805;DHT22;11064;47.102;15.452;2024-01-15T07:13:53;-3.30;99.90
21805;DHT22;11064;47.102;15.452;2024-01-15T07:16:19;-3.20;99.90
21805;DHT22;11064;47.102;15.452;2024-01-15T07:18:45;-3.10;99.90
21805;DHT22;11064;47.102;15.452;2024-01-15T07:21:11;-3.00;99.90
21805;DHT22;11064;47.102;15.452;2024-01-15T07:23:36;-3.00;99.90
21805;DHT22;11064;47.102;15.452;2024-01-15T07:26:02;-2.90;99.90
21805;DHT22;11064;47.102;15.452;2024-01-15T07:28:31;-2.80;99.90
21805;DHT22;11064;47.102;15.452;2024-01-15T07:30:57;-2.80;99.90
21805;DHT22;11064;47.102;15.452;2024-01-15T07:33:23;-2.80;99.90
21805;DHT22;11064;47.102;15.452;2024-01-15T07:35:49;-2.80;99.90
21805;DHT22;11064;47.102;15.452;2024-01-15T07:38:15;-2.80;99.90
21805;DHT22;11064;47.102;15.452;2024-01-15T07:40:40;-2.80;99.90
21805;DHT22;11064;47.102;15.452;2024-01-15T07:43:06;-2.80;99.90
21805;DHT22;11064;47.102;15.452;2024-01-15T07:45:32;-2.80;99.90
21805;DHT22;11064;47.102;15.452;2024-01-15T07:47:59;-2.70;99.90
21805;DHT22;11064;47.102;15.452;2024-01-15T07:50:26;-2.70;99.90
21805;DHT22;11064;47.102;15.452;2024-01-15T07:52:51;-2.70;99.90
21805;DHT22;11064;47.102;15.452;2024-01-15T07:55:18;-2.70;99.90
21805;DHT22;11064;47.102;15.452;2024-01-15T07:57:44;-2.70;99.90
21805;DHT22;11064;47.102;15.452;2024-01-15T08:00:10;-2.60;99.90
21805;DHT22;11064;47.102;15.452;2024-01-15T08:02:36;-2.70;99.90
21805;DHT22;11064;47.102;15.452;2024-01-15T08:05:02;-2.80;99.90
21805;DHT22;11064;47.102;15.452;2024-01-15T08:07:28;-2.90;99.90
21805;DHT22;11064;47.102;15.452;2024-01-15T08:09:53;-3.00;99.90
21805;DHT22;11064;47.102;15.452;2024-01-15T08:12:19;-2.90;99.90
21805;DHT22;11064;47.102;15.452;2024-01-15T08:14:45;-2.80;99.90
21805;DHT22;11064;47.102;15.452;2024-01-15T08:17:11;-2.70;99.90
21805;DHT22;11064;47.102;15.452;2024-01-15T08:19:37;-2.50;99.90
21805;DHT22;11064;47.102;15.452;2024-01-15T08:22:03;-2.20;99.90
21805;DHT22;11064;47.102;15.452;2024-01-15T08:24:29;-2.10;99.90
21805;DHT22;11064;47.102;15.452;2024-01-15T08:26:55;-2.20;99.90
21805;DHT22;11064;47.102;15.452;2024-01-15T08:29:21;-2.20;99.90
21805;DHT22;11064;47.102;15.452;2024-01-15T08:31:47;-2.30;99.90
21805;DHT22;11064;47.102;15.452;2024-01-15T08:34:13;-2.40;99.90
21805;DHT22;11064;47.102;15.452;2024-01-15T08:36:39;-2.40;99.90
21805;DHT22;11064;47.102;15.452;2024-01-15T08:39:06;-2.40;99.90
21805;DHT22;11064;47.102;15.452;2024-01-15T08:41:35;-2.30;99.90
21805;DHT22;11064;47.102;15.452;2024-01-15T08:44:01;-2.30;99.90
21805;DHT22;11064;47.102;15.452;2024-01-15T08:46:28;-2.20;99.90
21805;DHT22;11064;47.102;15.452;2024-01-15T08:48:54;-2.20;99.90
21805;DHT22;11064;47.102;15.452;2024-01-15T08:51:20;-2.10;99.90
21805;DHT22;11064;47.102;15.452;2024-01-15T08:53:45;-2.00;99.90
21805;DHT22;11064;47.102;15.452;2024-01-15T08:56:11;-1.90;99.90
21805;DHT22;11064;47.102;15.452;2024-01-15T08:58:37;-1.80;99.90
21805;DHT22;11064;47.102;15.452;2024-01-15T09:01:03;-1.70;99.90
21805;DHT22;11064;47.102;15.452;2024-01-15T09:03:29;-1.50;99.90
21805;DHT22;11064;47.102;15.452;2024-01-15T09:05:55;-1.20;99.90
21805;DHT22;11064;47.102;15.452;2024-01-15T09:08:21;-1.20;99.90
21805;DHT22;11064;47.102;15.452;2024-01-15T09:10:47;-1.20;99.90
21805;DHT22;11064;47.102;15.452;2024-01-15T09:13:13;-1.20;99.90
21805;DHT22;11064;47.102;15.452;2024-01-15T09:15:38;-1.10;99.90
21805;DHT22;11064;47.102;15.452;2024-01-15T09:18:04;-1.00;99.90
21805;DHT22;11064;47.102;15.452;2024-01-15T09:20:32;-1.00;99.90
21805;DHT22;11064;47.102;15.452;2024-01-15T09:22:58;-0.90;99.90
21805;DHT22;11064;47.102;15.452;2024-01-15T09:25:25;-0.90;99.90
21805;DHT22;11064;47.102;15.452;2024-01-15T09:27:51;-0.90;99.90
21805;DHT22;11064;47.102;15.452;2024-01-15T09:30:17;-1.00;99.90
21805;DHT22;11064;47.102;15.452;2024-01-15T09:32:44;-0.90;99.90
21805;DHT22;11064;47.102;15.452;2024-01-15T09:35:10;-0.90;99.90
21805;DHT22;11064;47.102;15.452;2024-01-15T09:37:41;-0.90;99.90
21805;DHT22;11064;47.102;15.452;2024-01-15T09:40:09;-0.90;99.90
21805;DHT22;11064;47.102;15.452;2024-01-15T09:42:38;-0.80;99.90
21805;DHT22;11064;47.102;15.452;2024-01-15T09:45:04;-0.80;99.90
21805;DHT22;11064;47.102;15.452;2024-01-15T09:47:31;-0.80;99.90
21805;DHT22;11064;47.102;15.452;2024-01-15T09:49:57;-0.70;99.90
21805;DHT22;11064;47.102;15.452;2024-01-15T09:52:24;-0.70;99.90
21805;DHT22;11064;47.102;15.452;2024-01-15T09:54:50;-0.60;99.90
21805;DHT22;11064;47.102;15.452;2024-01-15T09:57:18;-0.60;99.90
21805;DHT22;11064;47.102;15.452;2024-01-15T09:59:45;-0.50;99.90
21805;DHT22;11064;47.102;15.452;2024-01-15T10:02:13;-0.40;99.90
21805;DHT22;11064;47.102;15.452;2024-01-15T10:04:43;-0.20;99.90
21805;DHT22;11064;47.102;15.452;2024-01-15T10:07:12;-0.10;99.90
21805;DHT22;11064;47.102;15.452;2024-01-15T10:09:41;-0.10;99.90
21805;DHT22;11064;47.102;15.452;2024-01-15T10:12:07;0.00;99.90
21805;DHT22;11064;47.102;15.452;2024-01-15T10:14:33;0.20;99.90
21805;DHT22;11064;47.102;15.452;2024-01-15T10:17:00;0.30;99.90
21805;DHT22;11064;47.102;15.452;2024-01-15T10:19:26;0.30;99.90
21805;DHT22;11064;47.102;15.452;2024-01-15T10:21:51;0.40;99.90
21805;DHT22;11064;47.102;15.452;2024-01-15T10:24:17;0.50;99.90
21805;DHT22;11064;47.102;15.452;2024-01-15T10:26:43;0.60;99.90
21805;DHT22;11064;47.102;15.452;2024-01-15T10:29:10;0.60;99.90
21805;DHT22;11064;47.102;15.452;2024-01-15T10:31:37;0.70;99.90
21805;DHT22;11064;47.102;15.452;2024-01-15T10:34:11;0.80;99.90
21805;DHT22;11064;47.102;15.452;2024-01-15T10:36:39;1.00;99.90
21805;DHT22;11064;47.102;15.452;2024-01-15T10:39:06;1.10;99.90
21805;DHT22;11064;47.102;15.452;2024-01-15T10:41:33;1.20;99.90
21805;DHT22;11064;47.102;15.452;2024-01-15T10:43:59;1.30;99.90
21805;DHT22;11064;47.102;15.452;2024-01-15T10:46:25;1.40;99.90
21805;DHT22;11064;47.102;15.452;2024-01-15T10:49:03;1.60;99.90
21805;DHT22;11064;47.102;15.452;2024-01-15T10:51:29;1.70;99.90
21805;DHT22;11064;47.102;15.452;2024-01-15T10:53:56;1.90;99.90
21805;DHT22;11064;47.102;15.452;2024-01-15T10:56:23;2.00;99.90
21805;DHT22;11064;47.102;15.452;2024-01-15T10:58:51;2.10;99.90
21805;DHT22;11064;47.102;15.452;2024-01-15T11:01:17;2.10;99.90
21805;DHT22;11064;47.102;15.452;2024-01-15T11:03:45;2.20;99.90
21805;DHT22;11064;47.102;15.452;2024-01-15T11:06:19;2.40;99.90
21805;DHT22;11064;47.102;15.452;2024-01-15T11:08:50;2.50;99.90
21805;DHT22;11064;47.102;15.452;2024-01-15T11:11:17;2.60;99.90
21805;DHT22;11064;47.102;15.452;2024-01-15T11:13:46;2.70;99.90
21805;DHT22;11064;47.102;15.452;2024-01-15T11:16:13;2.70;99.90
21805;DHT22;11064;47.102;15.452;2024-01-15T11:21:28;2.70;99.90
21805;DHT22;11064;47.102;15.452;2024-01-15T11:24:00;2.70;99.90
21805;DHT22;11064;47.102;15.452;2024-01-15T11:26:29;2.60;99.90
21805;DHT22;11064;47.102;15.452;2024-01-15T11:28:56;2.60;99.90
21805;DHT22;11064;47.102;15.452;2024-01-15T11:34:10;2.80;99.90
21805;DHT22;11064;47.102;15.452;2024-01-15T11:37:02;2.90;99.90
21805;DHT22;11064;47.102;15.452;2024-01-15T11:41:59;3.10;99.90
21805;DHT22;11064;47.102;15.452;2024-01-15T11:44:26;3.10;99.90
21805;DHT22;11064;47.102;15.452;2024-01-15T11:47:05;3.20;99.90
21805;DHT22;11064;47.102;15.452;2024-01-15T11:50:17;3.20;99.90
21805;DHT22;11064;47.102;15.452;2024-01-15T11:52:23;3.10;99.90
21805;DHT22;11064;47.102;15.452;2024-01-15T11:54:55;3.10;99.90
21805;DHT22;11064;47.102;15.452;2024-01-15T11:57:46;3.10;99.90
21805;DHT22;11064;47.102;15.452;2024-01-15T12:00:13;3.30;99.90
21805;DHT22;11064;47.102;15.452;2024-01-15T12:02:42;3.30;99.90
21805;DHT22;11064;47.102;15.452;2024-01-15T12:05:16;3.30;99.90
21805;DHT22;11064;47.102;15.452;2024-01-15T12:07:43;3.30;99.90
21805;DHT22;11064;47.102;15.452;2024-01-15T12:10:10;3.20;99.70
21805;DHT22;11064;47.102;15.452;2024-01-15T12:15:09;3.20;99.90
21805;DHT22;11064;47.102;15.452;2024-01-15T12:17:35;3.10;99.90
21805;DHT22;11064;47.102;15.452;2024-01-15T12:20:04;3.20;99.90
21805;DHT22;11064;47.102;15.452;2024-01-15T12:22:31;3.10;99.60
21805;DHT22;11064;47.102;15.452;2024-01-15T12:24:57;3.20;99.80
21805;DHT22;11064;47.102;15.452;2024-01-15T12:27:23;3.20;98.60
21805;DHT22;11064;47.102;15.452;2024-01-15T12:29:49;3.20;98.60
21805;DHT22;11064;47.102;15.452;2024-01-15T12:32:15;3.20;98.40
21805;DHT22;11064;47.102;15.452;2024-01-15T12:34:41;3.10;98.40
21805;DHT22;11064;47.102;15.452;2024-01-15T12:37:07;3.10;98.60
21805;DHT22;11064;47.102;15.452;2024-01-15T12:39:36;3.00;98.30
21805;DHT22;11064;47.102;15.452;2024-01-15T12:42:03;2.90;99.00
21805;DHT22;11064;47.102;15.452;2024-01-15T12:44:32;2.80;99.00
21805;DHT22;11064;47.102;15.452;2024-01-15T12:46:59;2.70;99.80
21805;DHT22;11064;47.102;15.452;2024-01-15T12:49:25;2.70;99.70
21805;DHT22;11064;47.102;15.452;2024-01-15T12:51:57;2.80;99.80
21805;DHT22;11064;47.102;15.452;2024-01-15T12:54:24;3.00;98.00
21805;DHT22;11064;47.102;15.452;2024-01-15T12:56:51;3.20;96.70
21805;DHT22;11064;47.102;15.452;2024-01-15T12:59:17;3.40;96.90
21805;DHT22;11064;47.102;15.452;2024-01-15T13:01:46;3.50;98.50
21805;DHT22;11064;47.102;15.452;2024-01-15T13:04:24;3.60;97.60
21805;DHT22;11064;47.102;15.452;2024-01-15T13:06:50;3.90;98.00
21805;DHT22;11064;47.102;15.452;2024-01-15T13:09:17;4.00;97.30
21805;DHT22;11064;47.102;15.452;2024-01-15T13:11:46;4.30;96.70
21805;DHT22;11064;47.102;15.452;2024-01-15T13:14:13;4.50;96.00
21805;DHT22;11064;47.102;15.452;2024-01-15T13:16:42;4.50;96.40
21805;DHT22;11064;47.102;15.452;2024-01-15T13:19:13;4.60;95.00
21805;DHT22;11064;47.102;15.452;2024-01-15T13:21:41;4.80;94.80
21805;DHT22;11064;47.102;15.452;2024-01-15T13:24:08;5.00;93.60
21805;DHT22;11064;47.102;15.452;2024-01-15T13:26:35;5.20;93.20
21805;DHT22;11064;47.102;15.452;2024-01-15T13:29:05;5.40;92.50
21805;DHT22;11064;47.102;15.452;2024-01-15T13:31:32;5.40;92.20
21805;DHT22;11064;47.102;15.452;2024-01-15T13:34:00;5.50;92.20
21805;DHT22;11064;47.102;15.452;2024-01-15T13:36:26;5.50;92.40
21805;DHT22;11064;47.102;15.452;2024-01-15T13:38:53;5.50;90.90
21805;DHT22;11064;47.102;15.452;2024-01-15T13:41:22;5.50;90.60
21805;DHT22;11064;47.102;15.452;2024-01-15T13:43:54;5.40;91.20
21805;DHT22;11064;47.102;15.452;2024-01-15T13:46:24;5.30;91.00
21805;DHT22;11064;47.102;15.452;2024-01-15T13:48:52;5.30;91.00
21805;DHT22;11064;47.102;15.452;2024-01-15T13:51:25;5.20;90.90
21805;DHT22;11064;47.102;15.452;2024-01-15T13:53:51;5.10;90.70
21805;DHT22;11064;47.102;15.452;2024-01-15T13:56:18;5.00;91.60
21805;DHT22;11064;47.102;15.452;2024-01-15T13:58:44;5.00;92.20
21805;DHT22;11064;47.102;15.452;2024-01-15T14:01:10;4.90;92.20
21805;DHT22;11064;47.102;15.452;2024-01-15T14:03:36;4.80;92.30
21805;DHT22;11064;47.102;15.452;2024-01-15T14:06:02;4.70;92.90
21805;DHT22;11064;47.102;15.452;2024-01-15T14:08:29;4.60;93.00
21805;DHT22;11064;47.102;15.452;2024-01-15T14:10:55;4.50;92.50
21805;DHT22;11064;47.102;15.452;2024-01-15T14:13:22;4.40;92.50
21805;DHT22;11064;47.102;15.452;2024-01-15T14:15:48;4.20;92.50
21805;DHT22;11064;47.102;15.452;2024-01-15T14:18:16;4.10;92.40
21805;DHT22;11064;47.102;15.452;2024-01-15T14:20:43;4.00;92.90
21805;DHT22;11064;47.102;15.452;2024-01-15T14:23:09;3.90;93.50
21805;DHT22;11064;47.102;15.452;2024-01-15T14:25:35;3.90;93.50
21805;DHT22;11064;47.102;15.452;2024-01-15T14:28:01;3.80;93.40
21805;DHT22;11064;47.102;15.452;2024-01-15T14:30:27;3.80;93.90
21805;DHT22;11064;47.102;15.452;2024-01-15T14:32:53;3.80;93.90
21805;DHT22;11064;47.102;15.452;2024-01-15T14:35:19;3.80;94.20
21805;DHT22;11064;47.102;15.452;2024-01-15T14:37:44;3.60;94.00
21805;DHT22;11064;47.102;15.452;2024-01-15T14:40:11;3.60;94.70
21805;DHT22;11064;47.102;15.452;2024-01-15T14:42:37;3.50;94.80
21805;DHT22;11064;47.102;15.452;2024-01-15T14:45:04;3.50;95.00
21805;DHT22;11064;47.102;15.452;2024-01-15T14:47:34;3.30;95.10
21805;DHT22;11064;47.102;15.452;2024-01-15T14:50:01;3.20;96.40
21805;DHT22;11064;47.102;15.452;2024-01-15T14:52:27;3.10;95.90
21805;DHT22;11064;47.102;15.452;2024-01-15T14:54:53;3.00;96.60
21805;DHT22;11064;47.102;15.452;2024-01-15T14:57:18;2.90;96.50
21805;DHT22;11064;47.102;15.452;2024-01-15T14:59:44;2.90;97.00
21805;DHT22;11064;47.102;15.452;2024-01-15T15:02:10;2.80;96.60
21805;DHT22;11064;47.102;15.452;2024-01-15T15:04:37;2.70;97.20
21805;DHT22;11064;47.102;15.452;2024-01-15T15:07:03;2.70;96.80
21805;DHT22;11064;47.102;15.452;2024-01-15T15:09:29;2.60;96.50
21805;DHT22;11064;47.102;15.452;2024-01-15T15:11:55;2.50;96.60
21805;DHT22;11064;47.102;15.452;2024-01-15T15:14:21;2.50;97.00
21805;DHT22;11064;47.102;15.452;2024-01-15T15:16:47;2.50;97.00
21805;DHT22;11064;47.102;15.452;2024-01-15T15:19:13;2.50;96.80
21805;DHT22;11064;47.102;15.452;2024-01-15T15:21:39;2.50;97.50
21805;DHT22;11064;47.102;15.452;2024-01-15T15:24:05;2.40;97.90
21805;DHT22;11064;47.102;15.452;2024-01-15T15:26:30;2.30;98.20
21805;DHT22;11064;47.102;15.452;2024-01-15T15:28:56;2.20;98.40
21805;DHT22;11064;47.102;15.452;2024-01-15T15:31:22;2.10;99.00
21805;DHT22;11064;47.102;15.452;2024-01-15T15:33:48;2.10;99.70
21805;DHT22;11064;47.102;15.452;2024-01-15T15:36:13;2.10;99.90
21805;DHT22;11064;47.102;15.452;2024-01-15T15:38:39;2.00;99.90
21805;DHT22;11064;47.102;15.452;2024-01-15T15:41:05;2.00;99.90
21805;DHT22;11064;47.102;15.452;2024-01-15T15:43:31;2.00;99.90
21805;DHT22;11064;47.102;15.452;2024-01-15T15:45:57;2.00;99.90
21805;DHT22;11064;47.102;15.452;2024-01-15T15:48:25;2.00;99.90
21805;DHT22;11064;47.102;15.452;2024-01-15T15:50:51;2.00;99.90
21805;DHT22;11064;47.102;15.452;2024-01-15T15:53:19;1.90;99.90
21805;DHT22;11064;47.102;15.452;2024-01-15T15:55:45;1.90;99.90
21805;DHT22;11064;47.102;15.452;2024-01-15T15:58:11;1.80;99.90
21805;DHT22;11064;47.102;15.452;2024-01-15T16:00:37;1.90;99.90
21805;DHT22;11064;47.102;15.452;2024-01-15T16:03:03;1.90;99.90
21805;DHT22;11064;47.102;15.452;2024-01-15T16:05:29;1.90;99.90
21805;DHT22;11064;47.102;15.452;2024-01-15T16:07:55;1.80;99.90
21805;DHT22;11064;47.102;15.452;2024-01-15T16:10:21;1.80;99.90
21805;DHT22;11064;47.102;15.452;2024-01-15T16:12:46;1.80;99.90
21805;DHT22;11064;47.102;15.452;2024-01-15T16:15:22;1.80;99.90
21805;DHT22;11064;47.102;15.452;2024-01-15T16:17:51;1.80;99.90
21805;DHT22;11064;47.102;15.452;2024-01-15T16:20:18;1.80;99.90
21805;DHT22;11064;47.102;15.452;2024-01-15T16:22:44;1.70;99.90
21805;DHT22;11064;47.102;15.452;2024-01-15T16:25:10;1.60;99.90
21805;DHT22;11064;47.102;15.452;2024-01-15T16:27:36;1.70;99.90
21805;DHT22;11064;47.102;15.452;2024-01-15T16:30:03;1.80;99.90
21805;DHT22;11064;47.102;15.452;2024-01-15T16:32:29;1.80;99.90
21805;DHT22;11064;47.102;15.452;2024-01-15T16:34:55;1.80;99.90
21805;DHT22;11064;47.102;15.452;2024-01-15T16:37:21;1.80;99.90
21805;DHT22;11064;47.102;15.452;2024-01-15T16:39:47;1.70;99.90
21805;DHT22;11064;47.102;15.452;2024-01-15T16:42:13;1.70;99.90
21805;DHT22;11064;47.102;15.452;2024-01-15T16:44:39;1.70;99.90
21805;DHT22;11064;47.102;15.452;2024-01-15T16:47:05;1.70;99.90
21805;DHT22;11064;47.102;15.452;2024-01-15T16:49:31;1.60;99.90
21805;DHT22;11064;47.102;15.452;2024-01-15T16:51:57;1.70;99.90
21805;DHT22;11064;47.102;15.452;2024-01-15T16:54:23;1.60;99.90
21805;DHT22;11064;47.102;15.452;2024-01-15T16:56:49;1.60;99.90
21805;DHT22;11064;47.102;15.452;2024-01-15T16:59:15;1.60;99.90
21805;DHT22;11064;47.102;15.452;2024-01-15T17:01:41;1.60;99.90
21805;DHT22;11064;47.102;15.452;2024-01-15T17:04:07;1.60;99.90
21805;DHT22;11064;47.102;15.452;2024-01-15T17:06:33;1.60;99.90
21805;DHT22;11064;47.102;15.452;2024-01-15T17:08:59;1.60;99.90
21805;DHT22;11064;47.102;15.452;2024-01-15T17:11:25;1.60;99.90
21805;DHT22;11064;47.102;15.452;2024-01-15T17:13:51;1.70;99.90
21805;DHT22;11064;47.102;15.452;2024-01-15T17:16:18;1.50;99.90
21805;DHT22;11064;47.102;15.452;2024-01-15T17:18:44;1.40;99.90
21805;DHT22;11064;47.102;15.452;2024-01-15T17:21:10;1.30;99.90
21805;DHT22;11064;47.102;15.452;2024-01-15T17:23:36;1.30;99.90
21805;DHT22;11064;47.102;15.452;2024-01-15T17:26:02;1.30;99.90
21805;DHT22;11064;47.102;15.452;2024-01-15T17:28:28;1.30;99.90
21805;DHT22;11064;47.102;15.452;2024-01-15T17:30:53;1.30;99.90
21805;DHT22;11064;47.102;15.452;2024-01-15T17:33:20;1.30;99.90
21805;DHT22;11064;47.102;15.452;2024-01-15T17:38:19;1.20;99.90
21805;DHT22;11064;47.102;15.452;2024-01-15T17:40:45;1.20;99.90
21805;DHT22;11064;47.102;15.452;2024-01-15T17:43:11;1.30;99.90
21805;DHT22;11064;47.102;15.452;2024-01-15T17:45:37;1.30;99.90
21805;DHT22;11064;47.102;15.452;2024-01-15T17:48:04;1.30;99.90
21805;DHT22;11064;47.102;15.452;2024-01-15T17:50:31;1.30;99.90
21805;DHT22;11064;47.102;15.452;2024-01-15T17:52:58;1.20;99.90
21805;DHT22;11064;47.102;15.452;2024-01-15T17:55:25;1.20;99.90
21805;DHT22;11064;47.102;15.452;2024-01-15T17:57:51;1.10;99.90
21805;DHT22;11064;47.102;15.452;2024-01-15T18:00:18;1.00;99.90
21805;DHT22;11064;47.102;15.452;2024-01-15T18:02:45;0.90;99.90
21805;DHT22;11064;47.102;15.452;2024-01-15T18:05:12;0.80;99.90
21805;DHT22;11064;47.102;15.452;2024-01-15T18:07:38;0.80;99.90
21805;DHT22;11064;47.102;15.452;2024-01-15T18:10:08;0.70;99.90
21805;DHT22;11064;47.102;15.452;2024-01-15T18:12:36;0.60;99.90
21805;DHT22;11064;47.102;15.452;2024-01-15T18:15:02;0.50;99.90
21805;DHT22;11064;47.102;15.452;2024-01-15T18:17:28;0.50;99.90
21805;DHT22;11064;47.102;15.452;2024-01-15T18:19:55;0.60;99.90
21805;DHT22;11064;47.102;15.452;2024-01-15T18:22:21;0.50;99.90
21805;DHT22;11064;47.102;15.452;2024-01-15T18:24:48;0.50;99.90
21805;DHT22;11064;47.102;15.452;2024-01-15T18:27:15;0.40;99.90
21805;DHT22;11064;47.102;15.452;2024-01-15T18:29:42;0.40;99.90
21805;DHT22;11064;47.102;15.452;2024-01-15T18:32:08;0.30;99.90
21805;DHT22;11064;47.102;15.452;2024-01-15T18:34:35;0.10;99.90
21805;DHT22;11064;47.102;15.452;2024-01-15T18:37:01;0.00;99.90
21805;DHT22;11064;47.102;15.452;2024-01-15T18:39:26;-0.10;99.90
21805;DHT22;11064;47.102;15.452;2024-01-15T18:41:52;-0.20;99.90
21805;DHT22;11064;47.102;15.452;2024-01-15T18:44:18;-0.20;99.90
21805;DHT22;11064;47.102;15.452;2024-01-15T18:46:44;-0.30;99.90
21805;DHT22;11064;47.102;15.452;2024-01-15T18:49:12;-0.30;99.90
21805;DHT22;11064;47.102;15.452;2024-01-15T18:51:39;-0.40;99.90
21805;DHT22;11064;47.102;15.452;2024-01-15T18:54:04;-0.40;99.90
21805;DHT22;11064;47.102;15.452;2024-01-15T18:56:31;-0.60;99.90
21805;DHT22;11064;47.102;15.452;2024-01-15T18:58:57;-0.70;99.90
21805;DHT22;11064;47.102;15.452;2024-01-15T19:01:30;-0.80;99.90
21805;DHT22;11064;47.102;15.452;2024-01-15T19:03:58;-0.80;99.90
21805;DHT22;11064;47.102;15.452;2024-01-15T19:06:25;-0.90;99.90
21805;DHT22;11064;47.102;15.452;2024-01-15T19:08:51;-1.00;99.90
21805;DHT22;11064;47.102;15.452;2024-01-15T19:11:17;-1.20;99.90
21805;DHT22;11064;47.102;15.452;2024-01-15T19:13:43;-1.20;99.90
21805;DHT22;11064;47.102;15.452;2024-01-15T19:16:10;-1.20;99.90
21805;DHT22;11064;47.102;15.452;2024-01-15T19:18:36;-1.30;99.90
21805;DHT22;11064;47.102;15.452;2024-01-15T19:21:02;-1.20;99.90
21805;DHT22;11064;47.102;15.452;2024-01-15T19:23:31;-1.30;99.90
21805;DHT22;11064;47.102;15.452;2024-01-15T19:25:57;-1.20;99.90
21805;DHT22;11064;47.102;15.452;2024-01-15T19:28:23;-1.30;99.90
21805;DHT22;11064;47.102;15.452;2024-01-15T19:30:49;-1.30;99.90
21805;DHT22;11064;47.102;15.452;2024-01-15T19:33:16;-1.40;99.90
21805;DHT22;11064;47.102;15.452;2024-01-15T19:35:43;-1.40;99.90
21805;DHT22;11064;47.102;15.452;2024-01-15T19:38:09;-1.50;99.90
21805;DHT22;11064;47.102;15.452;2024-01-15T19:40:35;-1.60;99.90
21805;DHT22;11064;47.102;15.452;2024-01-15T19:43:01;-1.70;99.90
21805;DHT22;11064;47.102;15.452;2024-01-15T19:45:28;-1.70;99.90
21805;DHT22;11064;47.102;15.452;2024-01-15T19:47:54;-1.80;99.90
21805;DHT22;11064;47.102;15.452;2024-01-15T19:50:20;-1.90;99.90
21805;DHT22;11064;47.102;15.452;2024-01-15T19:52:45;-1.90;99.90
21805;DHT22;11064;47.102;15.452;2024-01-15T19:55:11;-1.80;99.90
21805;DHT22;11064;47.102;15.452;2024-01-15T19:57:38;-1.80;99.90
21805;DHT22;11064;47.102;15.452;2024-01-15T20:00:05;-1.80;99.90
21805;DHT22;11064;47.102;15.452;2024-01-15T20:02:34;-1.80;99.90
21805;DHT22;11064;47.102;15.452;2024-01-15T20:04:59;-1.80;99.90
21805;DHT22;11064;47.102;15.452;2024-01-15T20:07:26;-1.70;99.90
21805;DHT22;11064;47.102;15.452;2024-01-15T20:09:52;-1.80;99.90
21805;DHT22;11064;47.102;15.452;2024-01-15T20:12:19;-1.80;99.90
21805;DHT22;11064;47.102;15.452;2024-01-15T20:14:46;-1.90;99.90
21805;DHT22;11064;47.102;15.452;2024-01-15T20:17:12;-1.90;99.90
21805;DHT22;11064;47.102;15.452;2024-01-15T20:19:38;-2.00;99.90
21805;DHT22;11064;47.102;15.452;2024-01-15T20:22:04;-2.10;99.90
21805;DHT22;11064;47.102;15.452;2024-01-15T20:24:30;-2.10;99.90
21805;DHT22;11064;47.102;15.452;2024-01-15T20:26:56;-2.00;99.90
21805;DHT22;11064;47.102;15.452;2024-01-15T20:29:23;-2.00;99.90
21805;DHT22;11064;47.102;15.452;2024-01-15T20:31:49;-2.10;99.90
21805;DHT22;11064;47.102;15.452;2024-01-15T20:34:16;-2.10;99.90
21805;DHT22;11064;47.102;15.452;2024-01-15T20:36:42;-2.10;99.90